Time;durP1;ratioP1;P1;durP2;ratioP2;P2;SDS_P1;SDS_P2;PMS_P1;PMS_P2;Temp;Humidity;BMP_temperature;BMP_pressure;BME280_temperature;BME280_humidity;BME280_pressure;Samples;Min_cycle;Max_cycle;Signal;HPM_P1;HPM_P2
2022/07/03 00:00:41;;;;;;;4.20;2.05;;;19.10;99.90;;;;;;5092410;28;20464;-80
2022/07/03 00:03:07;;;;;;;8.25;2.30;;;19.10;99.90;;;;;;5092783;28;20039;-80
2022/07/03 00:05:33;;;;;;;6.05;1.98;;;19.10;99.90;;;;;;5093934;28;20040;-80
2022/07/03 00:07:59;;;;;;;4.40;1.88;;;19.10;99.90;;;;;;5074050;28;20464;-79
2022/07/03 00:10:24;;;;;;;3.90;2.13;;;19.10;99.90;;;;;;5078996;28;20123;-80
2022/07/03 00:12:50;;;;;;;4.25;2.25;;;19.00;99.90;;;;;;5090431;28;20133;-80
2022/07/03 00:15:16;;;;;;;4.07;2.03;;;19.00;99.90;;;;;;5080888;28;20059;-80
2022/07/03 00:17:41;;;;;;;4.85;1.95;;;19.00;99.90;;;;;;5103005;28;20031;-81
2022/07/03 00:20:08;;;;;;;4.72;2.42;;;19.00;99.90;;;;;;5091801;28;20063;-79
2022/07/03 00:22:38;;;;;;;5.32;2.50;;;18.90;99.90;;;;;;5093172;28;20047;-79
2022/07/03 00:25:06;;;;;;;5.10;2.35;;;18.90;99.90;;;;;;5110876;28;20040;-79
2022/07/03 00:27:33;;;;;;;4.30;2.25;;;18.90;99.90;;;;;;5120822;28;20039;-79
2022/07/03 00:30:02;;;;;;;4.15;2.38;;;18.80;99.90;;;;;;5077057;28;20119;-80
2022/07/03 00:32:28;;;;;;;4.18;2.28;;;18.70;99.90;;;;;;5077932;28;20488;-80
2022/07/03 00:34:55;;;;;;;2.83;2.25;;;18.80;99.90;;;;;;5067153;28;20127;-80
2022/07/03 00:37:22;;;;;;;4.28;2.78;;;18.70;99.90;;;;;;5099279;28;20042;-81
2022/07/03 00:39:48;;;;;;;2.75;2.08;;;18.60;99.90;;;;;;5100796;28;20044;-80
2022/07/03 00:42:14;;;;;;;4.85;2.72;;;18.60;99.90;;;;;;5073577;28;20050;-80
2022/07/03 00:44:48;;;;;;;5.55;3.05;;;18.60;99.90;;;;;;5105028;28;20028;-80
2022/07/03 00:47:15;;;;;;;4.20;2.30;;;18.60;99.90;;;;;;5091930;28;20046;-80
2022/07/03 00:49:43;;;;;;;3.40;2.58;;;18.60;99.90;;;;;;5092652;28;20036;-80
2022/07/03 00:52:12;;;;;;;3.83;2.30;;;18.60;99.90;;;;;;5077092;28;20052;-80
2022/07/03 00:54:51;;;;;;;4.85;2.25;;;18.60;99.90;;;;;;5104966;28;20047;-82
2022/07/03 00:57:17;;;;;;;5.88;3.30;;;18.60;99.90;;;;;;5084769;28;20039;-80
2022/07/03 00:59:43;;;;;;;5.03;2.75;;;18.50;99.90;;;;;;5081163;28;20048;-80
2022/07/03 01:02:38;;;;;;;4.22;2.63;;;18.50;99.90;;;;;;5085847;28;20539;-80
2022/07/03 01:05:15;;;;;;;4.05;2.50;;;18.50;99.90;;;;;;5077389;28;20098;-80
2022/07/03 01:07:53;;;;;;;5.43;3.00;;;18.50;99.90;;;;;;5080338;28;20079;-80
2022/07/03 01:10:55;;;;;;;4.15;3.03;;;18.40;99.90;;;;;;5084736;28;20045;-80
2022/07/03 01:13:48;;;;;;;4.07;2.80;;;18.40;99.90;;;;;;5088219;28;20051;-80
2022/07/03 01:16:38;;;;;;;7.43;2.72;;;18.40;99.90;;;;;;5082368;28;20464;-80
2022/07/03 01:19:46;;;;;;;3.67;2.80;;;18.50;99.90;;;;;;5079906;28;20032;-80
2022/07/03 01:22:30;;;;;;;6.28;2.97;;;18.50;99.90;;;;;;5086923;28;20051;-82
2022/07/03 01:25:14;;;;;;;8.02;3.08;;;18.40;99.90;;;;;;5086707;28;20072;-81
2022/07/03 01:28:00;;;;;;;4.05;2.50;;;18.40;99.90;;;;;;5082699;28;20036;-80
2022/07/03 01:30:30;;;;;;;5.75;3.08;;;18.30;99.90;;;;;;5090194;28;20119;-80
2022/07/03 01:33:23;;;;;;;7.97;3.20;;;18.20;99.90;;;;;;5086145;28;20127;-80
2022/07/03 01:36:01;;;;;;;4.05;2.85;;;18.20;99.90;;;;;;5110344;28;20138;-80
2022/07/03 01:38:29;;;;;;;4.93;2.85;;;18.10;99.90;;;;;;5082195;28;20046;-80
2022/07/03 01:40:55;;;;;;;7.65;2.97;;;18.10;99.90;;;;;;5109723;28;20399;-80
2022/07/03 01:43:29;;;;;;;3.58;2.92;;;18.10;99.90;;;;;;5068131;28;20032;-80
2022/07/03 01:45:59;;;;;;;5.00;3.10;;;18.10;99.90;;;;;;5087056;28;20122;-80
2022/07/03 01:48:26;;;;;;;5.25;3.10;;;18.10;99.90;;;;;;5083569;28;20080;-81
2022/07/03 01:50:52;;;;;;;3.65;2.53;;;18.10;99.90;;;;;;5090031;28;20036;-80
2022/07/03 01:53:19;;;;;;;7.55;3.10;;;18.00;99.90;;;;;;5081424;28;20047;-80
2022/07/03 01:55:46;;;;;;;5.55;3.53;;;18.00;99.90;;;;;;5107741;28;20488;-80
2022/07/03 01:58:12;;;;;;;3.83;2.97;;;18.00;99.90;;;;;;5072364;28;20032;-80
2022/07/03 02:01:05;;;;;;;6.65;3.20;;;18.00;99.90;;;;;;5073546;28;20106;-80
2022/07/03 02:03:33;;;;;;;4.22;3.53;;;18.00;99.90;;;;;;5047342;28;20044;-80
2022/07/03 02:06:16;;;;;;;4.80;3.67;;;17.90;99.90;;;;;;5089748;28;20039;-81
2022/07/03 02:08:52;;;;;;;4.75;3.10;;;17.70;99.90;;;;;;5080945;28;20032;-80
2022/07/03 02:11:20;;;;;;;3.38;2.90;;;17.50;99.90;;;;;;5083902;28;20036;-80
2022/07/03 02:14:09;;;;;;;3.90;3.15;;;17.50;99.90;;;;;;5091476;28;20071;-80
2022/07/03 02:16:51;;;;;;;4.50;3.67;;;17.40;99.90;;;;;;5087200;28;20047;-80
2022/07/03 02:19:18;;;;;;;6.40;4.30;;;17.30;99.90;;;;;;5095022;28;20043;-80
2022/07/03 02:21:50;;;;;;;5.75;3.78;;;17.30;99.90;;;;;;5095256;28;20305;-80
2022/07/03 02:24:26;;;;;;;4.32;3.50;;;17.20;99.90;;;;;;5094454;28;20042;-79
2022/07/03 02:26:55;;;;;;;6.15;3.25;;;17.10;99.90;;;;;;5095367;28;20046;-80
2022/07/03 02:29:30;;;;;;;6.50;3.50;;;16.80;99.90;;;;;;5092848;28;20688;-79
2022/07/03 02:32:03;;;;;;;5.90;3.45;;;16.60;99.90;;;;;;5089954;28;20028;-80
2022/07/03 02:34:31;;;;;;;6.43;3.63;;;16.50;99.90;;;;;;5092670;28;20035;-80
2022/07/03 02:37:05;;;;;;;4.70;3.92;;;16.40;99.90;;;;;;5097623;28;20062;-81
2022/07/03 02:40:12;;;;;;;6.35;3.85;;;16.30;99.90;;;;;;5098234;28;20036;-80
2022/07/03 02:43:02;;;;;;;6.53;4.15;;;16.30;99.90;;;;;;5012728;28;20154;-80
2022/07/03 02:45:40;;;;;;;6.32;3.80;;;16.30;99.90;;;;;;5085554;28;20074;-80
2022/07/03 02:48:41;;;;;;;6.28;4.03;;;16.30;99.90;;;;;;5082115;28;20123;-81
2022/07/03 02:51:19;;;;;;;5.50;3.95;;;16.30;99.90;;;;;;5031634;28;20495;-81
2022/07/03 02:53:59;;;;;;;7.65;3.70;;;16.30;99.90;;;;;;5101022;28;20040;-80
2022/07/03 02:56:51;;;;;;;7.00;3.80;;;16.30;99.90;;;;;;5083516;28;20043;-80
2022/07/03 02:59:38;;;;;;;6.65;4.30;;;16.30;99.90;;;;;;5065084;28;20113;-79
2022/07/03 03:02:12;;;;;;;5.60;3.85;;;16.30;99.90;;;;;;5085191;28;20086;-79
2022/07/03 03:04:43;;;;;;;4.70;3.78;;;16.40;99.90;;;;;;5091160;28;20090;-80
2022/07/03 03:07:15;;;;;;;6.18;4.10;;;16.40;99.90;;;;;;5079706;28;20063;-80
2022/07/03 03:09:43;;;;;;;6.50;4.25;;;16.40;99.90;;;;;;5091254;28;20606;-81
2022/07/03 03:12:11;;;;;;;5.05;4.22;;;16.50;99.90;;;;;;5090705;28;20051;-80
2022/07/03 03:14:40;;;;;;;6.65;4.45;;;16.50;99.90;;;;;;5093010;28;20044;-80
2022/07/03 03:17:07;;;;;;;6.53;4.47;;;16.50;99.90;;;;;;5076429;28;20104;-82
2022/07/03 03:19:40;;;;;;;4.63;3.60;;;16.50;99.90;;;;;;5094417;28;20039;-80
2022/07/03 03:22:09;;;;;;;5.15;4.00;;;16.50;99.90;;;;;;5093875;28;20494;-80
2022/07/03 03:24:34;;;;;;;5.82;4.07;;;16.50;99.90;;;;;;5088271;28;20096;-81
2022/07/03 03:27:00;;;;;;;5.18;4.40;;;16.50;99.90;;;;;;5075652;28;20450;-80
2022/07/03 03:29:27;;;;;;;5.90;4.68;;;16.40;99.90;;;;;;5092152;28;20415;-79
2022/07/03 03:31:53;;;;;;;5.05;4.55;;;16.40;99.90;;;;;;5092085;28;20063;-80
2022/07/03 03:34:20;;;;;;;7.03;4.60;;;16.40;99.90;;;;;;5060312;28;20495;-80
2022/07/03 03:36:45;;;;;;;6.75;4.72;;;16.30;99.90;;;;;;5088501;28;20050;-81
2022/07/03 03:39:12;;;;;;;4.85;4.40;;;16.20;99.90;;;;;;5073491;28;20112;-80
2022/07/03 03:41:38;;;;;;;5.50;4.18;;;16.20;99.90;;;;;;5077977;28;20043;-80
2022/07/03 03:44:04;;;;;;;;;;;16.20;99.90;;;;;;5110220;28;20502;-80
2022/07/03 03:46:30;;;;;;;5.78;4.65;;;16.30;99.90;;;;;;5078646;28;19916;-80
2022/07/03 03:48:57;;;;;;;6.45;4.78;;;16.30;99.90;;;;;;5091609;28;20039;-80
2022/07/03 03:51:22;;;;;;;5.20;4.50;;;16.30;99.90;;;;;;5074396;28;20177;-80
2022/07/03 03:53:48;;;;;;;5.28;4.55;;;16.30;99.90;;;;;;5071543;28;20126;-82
2022/07/03 03:56:14;;;;;;;6.00;5.00;;;16.20;99.90;;;;;;5108686;28;20437;-80
2022/07/03 03:58:42;;;;;;;7.50;4.55;;;16.20;99.90;;;;;;5083270;28;20044;-81
2022/07/03 04:01:09;;;;;;;7.78;4.18;;;16.10;99.90;;;;;;5044654;28;20059;-80
2022/07/03 04:03:36;;;;;;;4.20;3.70;;;16.10;99.90;;;;;;5086407;28;20483;-80
2022/07/03 04:06:03;;;;;;;6.93;4.25;;;16.10;99.90;;;;;;5109308;28;20078;-81
2022/07/03 04:08:30;;;;;;;8.73;4.88;;;16.10;99.90;;;;;;5083810;28;20047;-80
2022/07/03 04:10:57;;;;;;;6.25;5.30;;;16.10;99.90;;;;;;5083631;28;20043;-80
2022/07/03 04:13:23;;;;;;;;;;;16.10;99.90;;;;;;5093045;28;20036;-79
2022/07/03 04:15:50;;;;;;;6.47;4.50;;;16.10;99.90;;;;;;5092924;28;19915;-79
2022/07/03 04:18:16;;;;;;;7.30;4.60;;;16.10;99.90;;;;;;5079178;28;20048;-80
2022/07/03 04:20:42;;;;;;;5.80;4.75;;;16.10;99.90;;;;;;5083778;28;20527;-81
2022/07/03 04:23:07;;;;;;;5.65;4.25;;;16.10;99.90;;;;;;5088474;28;20051;-80
2022/07/03 04:25:33;;;;;;;7.00;4.75;;;16.10;99.90;;;;;;5087367;28;20047;-80
2022/07/03 04:27:59;;;;;;;4.95;4.45;;;16.10;99.90;;;;;;5092914;28;20074;-81
2022/07/03 04:30:25;;;;;;;5.50;4.30;;;16.10;99.90;;;;;;5092652;28;20183;-80
2022/07/03 04:32:51;;;;;;;5.60;5.10;;;16.10;99.90;;;;;;5091579;28;20036;-81
2022/07/03 04:35:17;;;;;;;6.55;4.82;;;16.10;99.90;;;;;;5090859;28;20388;-80
2022/07/03 04:37:43;;;;;;;5.30;4.43;;;16.20;99.90;;;;;;5110006;28;20047;-80
2022/07/03 04:40:09;;;;;;;5.93;4.43;;;16.20;99.90;;;;;;5092959;28;20035;-81
2022/07/03 04:42:35;;;;;;;5.00;4.28;;;16.30;99.90;;;;;;5092845;28;20081;-80
2022/07/03 04:45:01;;;;;;;7.30;4.70;;;16.30;99.90;;;;;;5075962;28;20068;-80
2022/07/03 04:47:27;;;;;;;7.10;4.80;;;16.30;99.90;;;;;;5090994;28;20047;-80
2022/07/03 04:49:53;;;;;;;5.40;4.90;;;16.30;99.90;;;;;;5066525;28;20118;-80
2022/07/03 04:52:18;;;;;;;5.50;5.00;;;16.30;99.90;;;;;;5088456;28;20075;-79
2022/07/03 04:54:44;;;;;;;8.25;4.88;;;16.30;99.90;;;;;;5087378;28;20043;-81
2022/07/03 04:57:10;;;;;;;5.90;5.03;;;16.40;99.90;;;;;;5088889;28;20043;-81
2022/07/03 04:59:36;;;;;;;5.68;4.93;;;16.40;99.90;;;;;;5093657;28;20052;-81
2022/07/03 05:02:02;;;;;;;5.32;4.82;;;16.40;99.90;;;;;;5087708;28;20048;-81
2022/07/03 05:04:28;;;;;;;6.28;4.80;;;16.40;99.90;;;;;;5093942;28;20430;-80
2022/07/03 05:06:53;;;;;;;6.28;4.85;;;16.40;99.90;;;;;;5094757;28;20086;-80
2022/07/03 05:09:19;;;;;;;6.90;5.30;;;16.50;99.90;;;;;;5087357;28;20400;-80
2022/07/03 05:11:45;;;;;;;8.32;5.53;;;16.50;99.90;;;;;;5085751;28;20032;-80
2022/07/03 05:14:11;;;;;;;5.35;4.55;;;16.50;99.90;;;;;;5094034;28;20077;-81
2022/07/03 05:16:36;;;;;;;7.55;5.40;;;16.60;99.90;;;;;;5083904;28;20040;-81
2022/07/03 05:19:02;;;;;;;5.57;4.97;;;16.60;99.90;;;;;;5094419;28;20134;-80
2022/07/03 05:21:28;;;;;;;7.43;5.65;;;16.30;99.90;;;;;;5091084;28;20039;-80
2022/07/03 05:23:54;;;;;;;6.95;4.95;;;16.80;99.90;;;;;;5088241;28;20618;-81
2022/07/03 05:26:20;;;;;;;6.00;5.10;;;16.90;99.90;;;;;;5093056;28;20361;-80
2022/07/03 05:28:45;;;;;;;6.22;5.20;;;17.00;99.90;;;;;;5079758;28;20386;-80
2022/07/03 05:31:11;;;;;;;7.20;5.28;;;17.10;99.90;;;;;;5102549;28;20051;-81
2022/07/03 05:33:38;;;;;;;6.10;4.78;;;17.30;99.90;;;;;;5098095;28;20063;-81
2022/07/03 05:36:04;;;;;;;6.70;4.70;;;17.40;99.90;;;;;;5093902;28;20039;-81
2022/07/03 05:41:17;;;;;;;7.15;4.95;;;17.90;99.90;;;;;;5089189;28;19987;-79
2022/07/03 05:43:43;;;;;;;5.07;4.32;;;18.10;99.90;;;;;;5069030;28;20120;-80
2022/07/03 05:46:09;;;;;;;5.20;4.68;;;18.40;99.90;;;;;;5079311;28;20093;-81
2022/07/03 05:48:35;;;;;;;5.72;4.20;;;18.50;99.90;;;;;;5069884;28;20513;-80
2022/07/03 05:51:01;;;;;;;6.22;4.22;;;18.60;99.90;;;;;;5083297;28;20415;-80
2022/07/03 05:53:27;;;;;;;5.43;4.20;;;18.70;99.90;;;;;;5068260;28;20466;-80
2022/07/03 05:55:53;;;;;;;5.53;3.38;;;18.80;99.90;;;;;;5089979;28;20039;-80
2022/07/03 05:58:18;;;;;;;5.13;3.40;;;18.90;99.90;;;;;;5089523;28;20039;-79
2022/07/03 06:00:44;;;;;;;4.15;3.30;;;18.90;99.90;;;;;;5109379;28;20055;-80
2022/07/03 06:03:10;;;;;;;5.50;3.35;;;19.00;99.90;;;;;;5063275;28;20411;-80
2022/07/03 06:05:36;;;;;;;4.25;3.05;;;19.20;99.90;;;;;;5079510;28;20044;-79
2022/07/03 06:08:01;;;;;;;4.47;2.55;;;19.60;99.90;;;;;;5107400;28;20036;-80
2022/07/03 06:10:29;;;;;;;4.63;2.50;;;20.10;99.90;;;;;;5078137;28;20484;-80
2022/07/03 06:12:55;;;;;;;4.68;2.22;;;20.30;99.90;;;;;;5061658;28;20043;-80
2022/07/03 06:15:21;;;;;;;3.55;1.50;;;20.60;99.90;;;;;;5096842;28;20086;-80
2022/07/03 06:17:47;;;;;;;3.83;1.48;;;21.10;99.90;;;;;;5084247;28;20043;-81
2022/07/03 06:20:13;;;;;;;2.50;1.20;;;21.50;99.90;;;;;;5084106;28;20052;-80
2022/07/03 06:22:40;;;;;;;2.83;1.33;;;21.70;99.90;;;;;;5085652;28;20036;-79
2022/07/03 06:25:06;;;;;;;4.50;1.20;;;21.70;99.90;;;;;;5083655;28;20147;-81
2022/07/03 06:27:33;;;;;;;2.97;1.27;;;21.40;99.90;;;;;;5089642;28;20032;-81
2022/07/03 06:29:59;;;;;;;4.45;1.42;;;21.20;99.90;;;;;;5101121;28;20056;-80
2022/07/03 06:32:24;;;;;;;3.47;1.33;;;21.00;99.90;;;;;;5091100;28;20044;-80
2022/07/03 06:34:50;;;;;;;3.28;1.08;;;20.80;99.90;;;;;;5065426;28;20441;-80
2022/07/03 06:37:16;;;;;;;2.17;1.10;;;20.60;99.90;;;;;;5085022;28;20501;-80
2022/07/03 06:39:42;;;;;;;3.42;1.20;;;20.50;99.90;;;;;;5088084;28;20036;-80
2022/07/03 06:42:07;;;;;;;1.13;1.00;;;20.50;99.90;;;;;;5084728;28;20483;-80
2022/07/03 06:44:33;;;;;;;3.80;1.50;;;20.70;99.90;;;;;;5088767;28;20123;-81
2022/07/03 06:47:02;;;;;;;4.40;1.00;;;20.80;99.90;;;;;;5111042;28;20046;-80
2022/07/03 06:49:32;;;;;;;4.78;1.33;;;20.80;99.90;;;;;;5089142;28;20096;-80
2022/07/03 06:51:58;;;;;;;3.05;1.52;;;20.80;99.90;;;;;;5082936;28;20115;-79
2022/07/03 06:54:24;;;;;;;2.30;0.98;;;20.80;99.90;;;;;;5073796;28;20123;-79
2022/07/03 06:56:50;;;;;;;;;;;20.70;99.90;;;;;;5110900;28;20070;-80
2022/07/03 06:59:16;;;;;;;3.90;0.80;;;20.60;99.90;;;;;;5094304;28;20395;-79
2022/07/03 07:01:42;;;;;;;3.08;0.93;;;20.50;99.90;;;;;;5093177;28;20045;-80
2022/07/03 07:04:07;;;;;;;1.40;0.60;;;20.50;99.90;;;;;;5086430;28;20119;-79
2022/07/03 07:06:33;;;;;;;2.72;0.70;;;20.60;99.90;;;;;;5093836;28;20031;-79
2022/07/03 07:08:59;;;;;;;1.33;0.70;;;21.00;99.90;;;;;;5094727;28;20151;-80
2022/07/03 07:11:25;;;;;;;2.67;0.90;;;21.50;99.90;;;;;;5093680;28;20074;-81
2022/07/03 07:13:50;;;;;;;2.25;0.85;;;22.10;99.90;;;;;;5084051;28;20392;-80
2022/07/03 07:16:16;;;;;;;1.73;0.65;;;22.60;99.90;;;;;;5073987;28;20035;-80
2022/07/03 07:18:43;;;;;;;1.70;0.60;;;22.80;99.90;;;;;;5080232;28;20051;-79
2022/07/03 07:21:09;;;;;;;2.10;0.73;;;23.10;99.90;;;;;;5075116;28;20049;-80
2022/07/03 07:23:35;;;;;;;2.58;0.60;;;23.20;99.90;;;;;;5069427;28;20035;-79
2022/07/03 07:26:01;;;;;;;;;;;23.10;99.90;;;;;;5080301;28;20093;-80
2022/07/03 07:28:28;;;;;;;2.00;0.57;;;22.70;99.90;;;;;;5090806;28;20022;-80
2022/07/03 07:30:54;;;;;;;2.92;0.63;;;22.30;99.90;;;;;;5072212;28;20101;-80
2022/07/03 07:33:21;;;;;;;2.78;0.85;;;21.90;99.90;;;;;;5073991;28;20044;-79
2022/07/03 07:35:47;;;;;;;2.80;0.90;;;21.80;99.90;;;;;;5085410;28;20553;-79
2022/07/03 07:38:12;;;;;;;1.45;0.60;;;21.90;99.90;;;;;;5068784;28;20044;-79
2022/07/03 07:40:38;;;;;;;1.75;0.77;;;22.30;99.90;;;;;;5053928;28;20100;-80
2022/07/03 07:43:04;;;;;;;2.58;0.80;;;22.80;99.90;;;;;;5079535;28;20051;-80
2022/07/03 07:45:30;;;;;;;;;;;23.40;99.90;;;;;;5085220;28;20031;-80
2022/07/03 07:47:55;;;;;;;3.65;0.65;;;23.50;99.90;;;;;;5080458;28;19970;-80
2022/07/03 07:50:21;;;;;;;1.92;0.70;;;23.80;99.90;;;;;;5061136;28;20059;-80
2022/07/03 07:52:47;;;;;;;;;;;24.00;99.90;;;;;;5080208;28;20036;-80
2022/07/03 07:55:12;;;;;;;2.53;1.00;;;24.20;99.90;;;;;;5111841;28;19916;-80
2022/07/03 07:57:38;;;;;;;;;;;24.40;99.90;;;;;;5094083;28;20114;-80
2022/07/03 08:00:09;;;;;;;2.80;0.65;;;24.70;99.90;;;;;;5085063;28;19934;-79
2022/07/03 08:05:38;;;;;;;1.40;1.10;;;24.60;99.90;;;;;;5093494;28;20084;-84
2022/07/03 08:08:12;;;;;;;2.15;0.80;;;24.50;99.90;;;;;;5052087;28;20036;-80
2022/07/03 08:10:46;;;;;;;3.00;1.00;;;24.60;99.90;;;;;;5080260;28;20036;-82
2022/07/03 08:13:13;;;;;;;2.50;0.90;;;24.90;99.90;;;;;;5066673;28;20032;-82
2022/07/03 08:15:40;;;;;;;2.17;0.88;;;25.10;99.90;;;;;;5106638;28;20050;-82
2022/07/03 08:18:06;;;;;;;2.10;1.00;;;25.30;99.90;;;;;;5108454;28;20043;-82
2022/07/03 08:20:33;;;;;;;2.30;0.70;;;25.60;99.90;;;;;;5064624;28;20135;-83
2022/07/03 08:22:59;;;;;;;3.40;0.70;;;25.70;99.90;;;;;;5072880;28;20593;-84
2022/07/03 08:25:25;;;;;;;2.15;0.80;;;25.90;99.90;;;;;;5073525;28;20066;-82
2022/07/03 08:27:51;;;;;;;3.22;0.85;;;26.00;99.80;;;;;;5101489;28;20031;-84
2022/07/03 08:30:18;;;;;;;3.58;0.60;;;26.20;99.90;;;;;;5066736;28;20037;-82
2022/07/03 08:32:45;;;;;;;2.88;0.50;;;26.40;99.90;;;;;;5083233;28;20524;-83
2022/07/03 08:35:11;;;;;;;2.13;0.43;;;26.60;99.90;;;;;;5071478;28;20039;-83
2022/07/03 08:37:36;;;;;;;2.45;0.60;;;26.60;99.50;;;;;;5096354;28;20105;-83
2022/07/03 08:40:06;;;;;;;1.42;0.32;;;26.70;98.00;;;;;;5093952;28;20071;-84
2022/07/03 08:42:36;;;;;;;1.90;0.30;;;26.80;98.80;;;;;;5090602;28;20040;-84
2022/07/03 08:45:03;;;;;;;1.52;0.30;;;27.20;97.80;;;;;;5093245;28;20118;-84
2022/07/03 08:47:32;;;;;;;3.95;0.40;;;27.30;98.10;;;;;;5086940;28;20392;-83
2022/07/03 08:50:00;;;;;;;1.67;0.32;;;27.60;97.50;;;;;;5071768;28;20043;-83
2022/07/03 08:52:26;;;;;;;1.92;0.40;;;27.80;96.50;;;;;;5092365;28;20433;-81
2022/07/03 08:54:52;;;;;;;1.10;0.30;;;27.80;96.00;;;;;;5069188;28;20143;-82
2022/07/03 08:57:18;;;;;;;1.33;0.30;;;27.80;96.20;;;;;;5063801;28;20487;-82
2022/07/03 08:59:50;;;;;;;1.20;0.30;;;27.80;95.40;;;;;;5071376;28;20056;-82
2022/07/03 09:02:17;;;;;;;1.35;0.30;;;27.90;95.40;;;;;;5080405;28;20056;-82
2022/07/03 09:04:43;;;;;;;1.88;0.20;;;28.10;94.60;;;;;;5105566;28;20036;-81
2022/07/03 09:07:10;;;;;;;0.80;0.15;;;28.10;94.40;;;;;;5080769;28;20047;-83
2022/07/03 09:09:37;;;;;;;2.05;0.38;;;28.10;94.20;;;;;;5082537;28;20032;-82
2022/07/03 09:12:03;;;;;;;1.60;0.32;;;28.20;94.10;;;;;;5094243;28;20492;-80
2022/07/03 09:14:29;;;;;;;1.42;0.20;;;28.30;94.80;;;;;;5103364;28;20047;-80
2022/07/03 09:16:55;;;;;;;1.70;0.28;;;28.50;94.30;;;;;;5083256;28;20040;-80
2022/07/03 09:19:43;;;;;;;3.67;0.30;;;28.70;94.00;;;;;;5096373;28;20036;-83
2022/07/03 09:22:30;;;;;;;4.07;0.35;;;28.50;93.00;;;;;;5087633;28;20046;-80
2022/07/03 09:25:14;;;;;;;2.38;0.20;;;28.40;92.80;;;;;;5058621;28;20119;-80
2022/07/03 09:27:51;;;;;;;1.65;0.30;;;28.50;93.30;;;;;;5107494;28;20035;-81
2022/07/03 09:30:17;;;;;;;2.35;0.28;;;28.60;93.00;;;;;;5081632;28;20401;-83
2022/07/03 09:32:44;;;;;;;2.10;0.25;;;28.70;93.40;;;;;;5085013;28;20043;-80
2022/07/03 09:35:16;;;;;;;1.27;0.30;;;28.70;93.50;;;;;;5081128;28;20032;-80
2022/07/03 09:37:49;;;;;;;1.35;0.20;;;29.00;93.70;;;;;;5087673;28;20039;-81
2022/07/03 09:40:16;;;;;;;0.85;0.20;;;29.00;93.40;;;;;;5102009;28;20032;-81
2022/07/03 09:43:03;;;;;;;1.27;0.20;;;29.20;93.50;;;;;;5081458;28;20079;-80
2022/07/03 09:45:54;;;;;;;2.00;0.20;;;29.20;92.90;;;;;;5086225;28;20074;-80
2022/07/03 09:48:31;;;;;;;0.50;0.20;;;29.50;92.50;;;;;;5085251;28;20032;-80
2022/07/03 09:51:19;;;;;;;0.75;0.22;;;29.70;93.20;;;;;;5080897;28;20083;-79
2022/07/03 09:53:55;;;;;;;0.57;0.20;;;29.80;92.30;;;;;;5082239;28;20738;-80
2022/07/03 09:56:26;;;;;;;0.57;0.22;;;29.70;92.30;;;;;;5092879;28;20048;-80
2022/07/03 09:59:13;;;;;;;1.60;0.40;;;29.60;93.10;;;;;;5105526;28;20174;-80
2022/07/03 10:01:44;;;;;;;1.80;0.50;;;29.50;92.80;;;;;;5090570;28;20047;-81
2022/07/03 10:04:18;;;;;;;2.20;0.30;;;29.40;92.80;;;;;;5081935;28;20040;-82
2022/07/03 10:06:58;;;;;;;1.55;0.20;;;29.30;92.70;;;;;;5076750;28;20048;-79
2022/07/03 10:09:33;;;;;;;1.50;0.20;;;29.20;92.40;;;;;;5087497;28;20140;-80
2022/07/03 10:12:00;;;;;;;1.65;0.30;;;29.10;92.30;;;;;;5075807;28;20055;-80
2022/07/03 10:14:33;;;;;;;1.25;0.30;;;29.20;93.70;;;;;;5098357;28;20039;-81
2022/07/03 10:17:01;;;;;;;1.42;0.45;;;29.50;93.60;;;;;;5077331;28;20044;-79
2022/07/03 10:19:37;;;;;;;1.75;0.30;;;29.60;92.80;;;;;;5080995;28;20044;-80
2022/07/03 10:22:18;;;;;;;1.52;0.55;;;29.70;93.70;;;;;;5067573;28;20130;-81
2022/07/03 10:24:48;;;;;;;1.70;0.30;;;28.70;93.00;;;;;;5083200;28;20055;-78
2022/07/03 10:27:14;;;;;;;2.25;0.40;;;28.20;94.00;;;;;;5082790;28;20047;-81
2022/07/03 10:29:41;;;;;;;2.15;0.40;;;28.30;94.20;;;;;;5108834;28;20066;-83
2022/07/03 10:32:08;;;;;;;1.13;0.30;;;28.30;94.20;;;;;;5070359;28;20075;-82
2022/07/03 10:34:34;;;;;;;1.73;0.20;;;28.90;93.90;;;;;;5093920;28;20074;-84
2022/07/03 10:37:04;;;;;;;0.65;0.20;;;29.10;93.80;;;;;;5087336;28;20119;-81
2022/07/03 10:44:45;;;;;;;1.35;0.30;;;29.60;93.10;;;;;;5058559;28;20090;-82
2022/07/03 10:45:34;;;;;;;1.13;0.22;;;30.50;92.10;;;;;;5087401;28;20044;-84
2022/07/03 10:48:00;;;;;;;0.63;0.20;;;30.60;91.50;;;;;;5072828;28;20042;-81
2022/07/03 10:50:26;;;;;;;1.92;0.28;;;30.60;92.00;;;;;;5091964;28;20131;-80
2022/07/03 10:52:52;;;;;;;1.48;0.43;;;30.60;91.70;;;;;;5092331;28;20093;-80
2022/07/03 10:55:18;;;;;;;2.88;0.40;;;30.30;91.60;;;;;;5073755;28;20043;-78
2022/07/03 10:58:08;;;;;;;2.20;0.40;;;29.80;92.90;;;;;;5076156;28;20040;-79
2022/07/03 11:00:54;;;;;;;2.17;0.43;;;29.40;92.70;;;;;;5104547;28;20036;-79
2022/07/03 11:04:04;;;;;;;3.30;0.55;;;29.10;93.70;;;;;;5072675;28;20392;-80
2022/07/03 11:06:56;;;;;;;2.95;0.55;;;29.30;93.40;;;;;;5090012;28;20260;-79
2022/07/03 11:09:22;;;;;;;1.55;0.40;;;29.00;92.60;;;;;;5036270;28;20040;-78
2022/07/03 11:11:54;;;;;;;3.00;0.30;;;28.80;93.10;;;;;;5074278;28;20047;-79
2022/07/03 11:14:25;;;;;;;1.67;0.40;;;28.70;93.60;;;;;;5073755;28;20062;-80
2022/07/03 11:17:16;;;;;;;2.55;0.50;;;28.60;93.10;;;;;;5074861;28;20040;-81
2022/07/03 11:19:42;;;;;;;3.17;0.40;;;28.40;93.60;;;;;;5070900;28;20036;-83
2022/07/03 11:22:20;;;;;;;2.00;0.38;;;28.60;93.20;;;;;;5073871;28;20040;-81
2022/07/03 11:24:52;;;;;;;1.63;0.40;;;28.70;93.20;;;;;;5051168;28;20036;-81
2022/07/03 11:27:21;;;;;;;2.72;0.60;;;28.80;93.90;;;;;;5068403;28;20082;-80
2022/07/03 11:29:52;;;;;;;4.32;0.30;;;29.00;93.80;;;;;;5067888;28;20047;-81
2022/07/03 11:32:45;;;;;;;2.97;0.50;;;29.60;93.80;;;;;;5075040;28;20032;-79
2022/07/03 11:35:46;;;;;;;2.72;0.30;;;30.10;93.10;;;;;;5073127;28;20051;-82
2022/07/03 11:38:27;;;;;;;2.03;0.50;;;29.90;92.30;;;;;;5072623;28;20217;-80
2022/07/03 11:40:56;;;;;;;0.80;0.30;;;29.40;93.30;;;;;;5073952;28;20047;-81
2022/07/03 11:43:22;;;;;;;3.40;0.63;;;29.10;93.60;;;;;;5055052;28;20035;-80
2022/07/03 11:45:49;;;;;;;3.08;0.50;;;29.00;93.20;;;;;;5073379;28;20373;-80
2022/07/03 11:48:23;;;;;;;3.35;0.65;;;29.10;93.70;;;;;;5076804;28;20074;-82
2022/07/03 11:50:50;;;;;;;2.80;0.70;;;28.90;92.60;;;;;;5075575;28;20079;-79
2022/07/03 11:53:34;;;;;;;2.13;0.50;;;28.90;93.00;;;;;;5073385;28;20538;-81
2022/07/03 11:56:02;;;;;;;3.38;0.70;;;28.90;93.30;;;;;;5078753;28;20494;-80
2022/07/03 11:58:50;;;;;;;3.53;0.85;;;29.30;94.00;;;;;;5076922;28;20044;-80
2022/07/03 12:01:27;;;;;;;3.08;0.60;;;29.20;93.60;;;;;;5054612;28;20056;-80
2022/07/03 12:04:12;;;;;;;2.85;0.60;;;29.20;93.40;;;;;;5074371;28;20114;-81
2022/07/03 12:06:57;;;;;;;2.13;0.60;;;28.90;93.40;;;;;;5063025;28;20045;-82
2022/07/03 12:09:34;;;;;;;2.42;0.55;;;28.80;94.20;;;;;;5058421;28;20037;-83
2022/07/03 12:12:07;;;;;;;3.10;0.60;;;28.80;94.20;;;;;;5058956;28;20082;-84
2022/07/03 12:14:40;;;;;;;2.50;0.55;;;28.70;94.40;;;;;;5073553;28;20071;-81
2022/07/03 12:17:08;;;;;;;2.00;0.52;;;28.50;95.00;;;;;;5065040;28;20054;-79
2022/07/03 12:19:35;;;;;;;1.77;0.40;;;28.30;94.40;;;;;;5071818;28;20048;-80
2022/07/03 12:22:01;;;;;;;2.72;0.80;;;28.70;94.10;;;;;;5065442;28;20165;-80
2022/07/03 12:24:26;;;;;;;4.03;0.70;;;29.00;94.10;;;;;;5067831;28;20111;-80
2022/07/03 12:26:52;;;;;;;2.85;0.47;;;28.60;93.90;;;;;;5073862;28;20032;-80
2022/07/03 12:29:18;;;;;;;3.22;0.70;;;28.20;94.10;;;;;;5085028;28;20499;-81
2022/07/03 12:31:46;;;;;;;2.30;0.70;;;28.30;94.70;;;;;;5087499;28;20386;-80
2022/07/03 12:34:13;;;;;;;2.38;0.70;;;28.20;95.30;;;;;;5065890;28;20088;-80
2022/07/03 12:36:39;;;;;;;2.88;0.60;;;28.20;95.20;;;;;;5088281;28;20035;-81
2022/07/03 12:39:05;;;;;;;4.30;0.77;;;28.40;94.80;;;;;;5073826;28;20066;-81
2022/07/03 12:41:32;;;;;;;3.13;0.68;;;28.50;94.00;;;;;;5089495;28;20036;-83
2022/07/03 12:43:59;;;;;;;3.38;0.50;;;28.40;94.80;;;;;;5068203;28;20063;-82
2022/07/03 12:46:28;;;;;;;3.50;0.45;;;28.40;94.80;;;;;;5070486;28;20036;-84
2022/07/03 12:48:56;;;;;;;2.72;0.60;;;28.30;94.90;;;;;;5071142;28;20142;-80
2022/07/03 12:51:45;;;;;;;3.97;0.80;;;28.20;95.30;;;;;;5072367;28;20044;-80
2022/07/03 12:54:30;;;;;;;3.30;0.77;;;28.50;95.30;;;;;;5071979;28;20093;-80
2022/07/03 13:00:12;;;;;;;4.22;0.70;;;28.80;94.80;;;;;;5077286;28;20053;-80
2022/07/03 13:02:39;;;;;;;3.55;1.05;;;29.00;95.10;;;;;;5092680;28;20047;-82
2022/07/03 13:05:14;;;;;;;4.18;0.80;;;29.40;94.70;;;;;;5082690;28;20923;-81
2022/07/03 13:07:41;;;;;;;3.47;0.57;;;29.50;94.30;;;;;;5092694;28;20045;-81
2022/07/03 13:10:08;;;;;;;2.75;0.50;;;29.70;93.30;;;;;;5093162;28;20043;-83
2022/07/03 13:12:34;;;;;;;8.43;0.93;;;29.40;93.00;;;;;;5092975;28;20035;-82
2022/07/03 13:15:07;;;;;;;3.30;0.93;;;29.50;93.40;;;;;;5093380;28;20031;-83
2022/07/03 13:17:55;;;;;;;1.67;0.52;;;29.40;93.00;;;;;;5096166;28;20089;-81